sensor_id;sensor_type;location;lat;lon;timestamp;temperature;humidity
47090;DHT22;32840;52.516;13.294;2022-07-29T00:01:01;19.10;70.20
47090;DHT22;32840;52.516;13.294;2022-07-29T00:03:46;19.10;70.80
47090;DHT22;32840;52.516;13.294;2022-07-29T00:06:31;19.10;70.90
47090;DHT22;32840;52.516;13.294;2022-07-29T00:09:16;18.90;71.40
47090;DHT22;32840;52.516;13.294;2022-07-29T00:12:01;18.90;71.50
47090;DHT22;32840;52.516;13.294;2022-07-29T00:14:45;19.00;71.70
47090;DHT22;32840;52.516;13.294;2022-07-29T00:17:30;19.00;71.30
47090;DHT22;32840;52.516;13.294;2022-07-29T00:20:16;19.00;71.80
47090;DHT22;32840;52.516;13.294;2022-07-29T00:23:00;19.00;72.10
47090;DHT22;32840;52.516;13.294;2022-07-29T00:25:45;19.00;71.90
47090;DHT22;32840;52.516;13.294;2022-07-29T00:28:30;19.00;72.10
47090;DHT22;32840;52.516;13.294;2022-07-29T00:31:15;18.90;72.30
47090;DHT22;32840;52.516;13.294;2022-07-29T00:34:00;18.90;72.70
47090;DHT22;32840;52.516;13.294;2022-07-29T00:36:45;18.90;72.80
47090;DHT22;32840;52.516;13.294;2022-07-29T00:39:30;18.80;73.10
47090;DHT22;32840;52.516;13.294;2022-07-29T00:42:14;18.80;73.40
47090;DHT22;32840;52.516;13.294;2022-07-29T00:44:59;18.80;73.20
47090;DHT22;32840;52.516;13.294;2022-07-29T00:47:44;18.80;73.60
47090;DHT22;32840;52.516;13.294;2022-07-29T00:50:29;18.80;73.30
47090;DHT22;32840;52.516;13.294;2022-07-29T00:53:14;18.70;73.90
47090;DHT22;32840;52.516;13.294;2022-07-29T00:55:59;18.70;73.70
47090;DHT22;32840;52.516;13.294;2022-07-29T00:58:46;18.80;74.00
47090;DHT22;32840;52.516;13.294;2022-07-29T01:01:32;18.80;74.00
47090;DHT22;32840;52.516;13.294;2022-07-29T01:04:17;18.70;74.20
47090;DHT22;32840;52.516;13.294;2022-07-29T01:07:03;18.70;74.20
47090;DHT22;32840;52.516;13.294;2022-07-29T01:09:48;18.70;74.50
47090;DHT22;32840;52.516;13.294;2022-07-29T01:12:34;18.70;74.90
47090;DHT22;32840;52.516;13.294;2022-07-29T01:15:20;18.60;74.80
47090;DHT22;32840;52.516;13.294;2022-07-29T01:18:18;18.70;74.80
47090;DHT22;32840;52.516;13.294;2022-07-29T01:27:44;18.60;75.60
47090;DHT22;32840;52.516;13.294;2022-07-29T01:30:32;18.50;75.70
47090;DHT22;32840;52.516;13.294;2022-07-29T01:33:22;18.50;76.60
47090;DHT22;32840;52.516;13.294;2022-07-29T01:36:32;18.50;75.90
47090;DHT22;32840;52.516;13.294;2022-07-29T01:39:31;18.60;76.00
47090;DHT22;32840;52.516;13.294;2022-07-29T01:45:20;18.60;76.30
47090;DHT22;32840;52.516;13.294;2022-07-29T01:48:16;18.60;76.40
47090;DHT22;32840;52.516;13.294;2022-07-29T01:51:08;18.60;76.60
47090;DHT22;32840;52.516;13.294;2022-07-29T01:54:21;18.60;76.60
47090;DHT22;32840;52.516;13.294;2022-07-29T01:57:12;18.60;76.60
47090;DHT22;32840;52.516;13.294;2022-07-29T01:59:59;18.40;77.00
47090;DHT22;32840;52.516;13.294;2022-07-29T02:02:47;18.40;77.30
47090;DHT22;32840;52.516;13.294;2022-07-29T02:05:33;18.30;78.00
47090;DHT22;32840;52.516;13.294;2022-07-29T02:08:19;18.10;78.60
47090;DHT22;32840;52.516;13.294;2022-07-29T02:11:06;18.10;78.70
47090;DHT22;32840;52.516;13.294;2022-07-29T02:13:56;18.10;78.90
47090;DHT22;32840;52.516;13.294;2022-07-29T02:16:42;18.20;78.80
47090;DHT22;32840;52.516;13.294;2022-07-29T02:19:29;18.20;78.70
47090;DHT22;32840;52.516;13.294;2022-07-29T02:22:16;18.10;79.00
47090;DHT22;32840;52.516;13.294;2022-07-29T02:25:03;18.00;79.10
47090;DHT22;32840;52.516;13.294;2022-07-29T02:27:50;17.90;79.90
47090;DHT22;32840;52.516;13.294;2022-07-29T02:30:40;17.90;80.00
47090;DHT22;32840;52.516;13.294;2022-07-29T02:33:26;18.00;79.90
47090;DHT22;32840;52.516;13.294;2022-07-29T02:36:12;18.00;80.00
47090;DHT22;32840;52.516;13.294;2022-07-29T02:38:57;17.90;80.30
47090;DHT22;32840;52.516;13.294;2022-07-29T02:41:47;17.90;80.20
47090;DHT22;32840;52.516;13.294;2022-07-29T02:44:34;17.90;80.10
47090;DHT22;32840;52.516;13.294;2022-07-29T02:47:23;17.80;80.50
47090;DHT22;32840;52.516;13.294;2022-07-29T02:50:23;17.80;80.60
47090;DHT22;32840;52.516;13.294;2022-07-29T02:53:17;17.90;80.50
47090;DHT22;32840;52.516;13.294;2022-07-29T02:56:14;18.00;80.20
47090;DHT22;32840;52.516;13.294;2022-07-29T02:59:04;18.00;80.20
47090;DHT22;32840;52.516;13.294;2022-07-29T03:01:50;18.00;80.20
47090;DHT22;32840;52.516;13.294;2022-07-29T03:04:36;17.90;80.40
47090;DHT22;32840;52.516;13.294;2022-07-29T03:07:22;17.80;80.90
47090;DHT22;32840;52.516;13.294;2022-07-29T03:10:08;17.80;80.60
47090;DHT22;32840;52.516;13.294;2022-07-29T03:12:55;17.80;80.90
47090;DHT22;32840;52.516;13.294;2022-07-29T03:15:43;17.90;80.70
47090;DHT22;32840;52.516;13.294;2022-07-29T03:18:29;17.90;80.40
47090;DHT22;32840;52.516;13.294;2022-07-29T03:21:15;18.00;80.60
47090;DHT22;32840;52.516;13.294;2022-07-29T03:23:59;18.00;80.20
47090;DHT22;32840;52.516;13.294;2022-07-29T03:26:44;17.90;80.50
47090;DHT22;32840;52.516;13.294;2022-07-29T03:29:30;17.80;81.30
47090;DHT22;32840;52.516;13.294;2022-07-29T03:32:15;17.70;81.90
47090;DHT22;32840;52.516;13.294;2022-07-29T03:35:00;17.70;81.80
47090;DHT22;32840;52.516;13.294;2022-07-29T03:37:45;17.80;81.40
47090;DHT22;32840;52.516;13.294;2022-07-29T03:43:22;17.90;81.40
47090;DHT22;32840;52.516;13.294;2022-07-29T03:46:10;17.90;81.50
47090;DHT22;32840;52.516;13.294;2022-07-29T03:48:58;17.80;81.60
47090;DHT22;32840;52.516;13.294;2022-07-29T03:51:44;17.90;81.50
47090;DHT22;32840;52.516;13.294;2022-07-29T03:54:30;17.90;81.30
47090;DHT22;32840;52.516;13.294;2022-07-29T03:57:15;17.90;81.20
47090;DHT22;32840;52.516;13.294;2022-07-29T04:00:03;17.90;81.30
47090;DHT22;32840;52.516;13.294;2022-07-29T04:02:48;17.90;81.20
47090;DHT22;32840;52.516;13.294;2022-07-29T04:05:33;17.80;81.20
47090;DHT22;32840;52.516;13.294;2022-07-29T04:08:18;17.90;81.50
47090;DHT22;32840;52.516;13.294;2022-07-29T04:11:04;18.00;81.20
47090;DHT22;32840;52.516;13.294;2022-07-29T04:13:49;17.90;81.40
47090;DHT22;32840;52.516;13.294;2022-07-29T04:16:34;18.00;81.10
47090;DHT22;32840;52.516;13.294;2022-07-29T04:19:19;18.00;81.20
47090;DHT22;32840;52.516;13.294;2022-07-29T04:22:04;18.00;81.20
47090;DHT22;32840;52.516;13.294;2022-07-29T04:24:48;18.00;81.00
47090;DHT22;32840;52.516;13.294;2022-07-29T04:27:33;18.00;82.00
47090;DHT22;32840;52.516;13.294;2022-07-29T04:30:18;17.90;81.30
47090;DHT22;32840;52.516;13.294;2022-07-29T04:33:05;18.00;81.20
47090;DHT22;32840;52.516;13.294;2022-07-29T04:35:50;18.00;81.10
47090;DHT22;32840;52.516;13.294;2022-07-29T04:38:35;18.10;81.20
47090;DHT22;32840;52.516;13.294;2022-07-29T04:41:20;18.00;81.10
47090;DHT22;32840;52.516;13.294;2022-07-29T04:44:05;18.10;81.80
47090;DHT22;32840;52.516;13.294;2022-07-29T04:46:50;18.10;81.00
47090;DHT22;32840;52.516;13.294;2022-07-29T04:49:37;18.10;80.80
47090;DHT22;32840;52.516;13.294;2022-07-29T04:52:22;18.00;81.10
47090;DHT22;32840;52.516;13.294;2022-07-29T04:55:07;18.00;81.00
47090;DHT22;32840;52.516;13.294;2022-07-29T04:57:52;18.10;80.80
47090;DHT22;32840;52.516;13.294;2022-07-29T05:00:37;18.00;81.50
47090;DHT22;32840;52.516;13.294;2022-07-29T05:03:23;17.90;81.30
47090;DHT22;32840;52.516;13.294;2022-07-29T05:06:07;18.00;81.50
47090;DHT22;32840;52.516;13.294;2022-07-29T05:08:52;18.20;81.60
47090;DHT22;32840;52.516;13.294;2022-07-29T05:11:37;18.30;81.10
47090;DHT22;32840;52.516;13.294;2022-07-29T05:14:22;18.40;80.90
47090;DHT22;32840;52.516;13.294;2022-07-29T05:17:07;18.50;80.30
47090;DHT22;32840;52.516;13.294;2022-07-29T05:19:52;18.50;80.30
47090;DHT22;32840;52.516;13.294;2022-07-29T05:22:37;18.60;80.00
47090;DHT22;32840;52.516;13.294;2022-07-29T05:25:23;18.60;80.00
47090;DHT22;32840;52.516;13.294;2022-07-29T05:28:07;18.70;79.90
47090;DHT22;32840;52.516;13.294;2022-07-29T05:30:52;18.70;79.50
47090;DHT22;32840;52.516;13.294;2022-07-29T05:33:37;18.70;79.60
47090;DHT22;32840;52.516;13.294;2022-07-29T05:36:22;18.70;79.20
47090;DHT22;32840;52.516;13.294;2022-07-29T05:39:07;18.70;79.20
47090;DHT22;32840;52.516;13.294;2022-07-29T05:41:52;18.60;79.60
47090;DHT22;32840;52.516;13.294;2022-07-29T05:44:38;18.60;79.50
47090;DHT22;32840;52.516;13.294;2022-07-29T05:47:24;18.70;79.50
47090;DHT22;32840;52.516;13.294;2022-07-29T05:50:09;18.70;79.30
47090;DHT22;32840;52.516;13.294;2022-07-29T05:52:53;18.80;79.60
47090;DHT22;32840;52.516;13.294;2022-07-29T05:55:38;18.80;79.10
47090;DHT22;32840;52.516;13.294;2022-07-29T05:58:23;18.90;79.50
47090;DHT22;32840;52.516;13.294;2022-07-29T06:01:08;19.00;79.80
47090;DHT22;32840;52.516;13.294;2022-07-29T06:03:55;19.10;79.10
47090;DHT22;32840;52.516;13.294;2022-07-29T06:06:40;19.20;78.70
47090;DHT22;32840;52.516;13.294;2022-07-29T06:09:25;19.30;77.90
47090;DHT22;32840;52.516;13.294;2022-07-29T06:12:10;19.30;77.50
47090;DHT22;32840;52.516;13.294;2022-07-29T06:14:55;19.40;76.70
47090;DHT22;32840;52.516;13.294;2022-07-29T06:17:41;19.50;77.50
47090;DHT22;32840;52.516;13.294;2022-07-29T06:20:26;19.50;76.60
47090;DHT22;32840;52.516;13.294;2022-07-29T06:23:11;19.60;76.70
47090;DHT22;32840;52.516;13.294;2022-07-29T06:25:56;19.70;76.30
47090;DHT22;32840;52.516;13.294;2022-07-29T06:28:41;19.60;75.90
47090;DHT22;32840;52.516;13.294;2022-07-29T06:31:25;19.60;75.50
47090;DHT22;32840;52.516;13.294;2022-07-29T06:34:10;19.60;75.50
47090;DHT22;32840;52.516;13.294;2022-07-29T06:36:55;19.60;76.00
47090;DHT22;32840;52.516;13.294;2022-07-29T06:39:40;19.60;75.90
47090;DHT22;32840;52.516;13.294;2022-07-29T20:38:04;24.30;52.60
47090;DHT22;32840;52.516;13.294;2022-07-29T20:40:50;24.20;53.30
47090;DHT22;32840;52.516;13.294;2022-07-29T20:43:36;24.20;53.40
47090;DHT22;32840;52.516;13.294;2022-07-29T20:46:21;24.10;53.40
47090;DHT22;32840;52.516;13.294;2022-07-29T20:49:06;24.00;53.50
47090;DHT22;32840;52.516;13.294;2022-07-29T20:51:51;24.00;53.70
47090;DHT22;32840;52.516;13.294;2022-07-29T20:54:36;24.00;53.60
47090;DHT22;32840;52.516;13.294;2022-07-29T20:57:21;23.90;53.70
47090;DHT22;32840;52.516;13.294;2022-07-29T21:00:06;23.90;53.70
47090;DHT22;32840;52.516;13.294;2022-07-29T21:02:52;23.80;53.70
47090;DHT22;32840;52.516;13.294;2022-07-29T21:05:37;23.80;53.70
47090;DHT22;32840;52.516;13.294;2022-07-29T21:08:22;23.80;53.90
47090;DHT22;32840;52.516;13.294;2022-07-29T21:11:07;23.80;53.90
47090;DHT22;32840;52.516;13.294;2022-07-29T21:13:52;23.70;53.90
47090;DHT22;32840;52.516;13.294;2022-07-29T21:16:37;23.70;53.90
47090;DHT22;32840;52.516;13.294;2022-07-29T21:19:22;23.70;53.90
47090;DHT22;32840;52.516;13.294;2022-07-29T21:22:07;23.70;54.00
47090;DHT22;32840;52.516;13.294;2022-07-29T21:24:52;23.70;53.90
47090;DHT22;32840;52.516;13.294;2022-07-29T21:27:37;23.60;53.80
47090;DHT22;32840;52.516;13.294;2022-07-29T21:30:40;23.60;53.90
47090;DHT22;32840;52.516;13.294;2022-07-29T21:33:27;23.60;53.90
47090;DHT22;32840;52.516;13.294;2022-07-29T21:36:13;23.60;53.90
47090;DHT22;32840;52.516;13.294;2022-07-29T21:38:59;23.60;53.90
47090;DHT22;32840;52.516;13.294;2022-07-29T21:41:50;23.60;53.90
47090;DHT22;32840;52.516;13.294;2022-07-29T21:44:35;23.50;54.00
47090;DHT22;32840;52.516;13.294;2022-07-29T21:47:24;23.50;54.60
47090;DHT22;32840;52.516;13.294;2022-07-29T21:50:09;23.50;54.00
47090;DHT22;32840;52.516;13.294;2022-07-29T21:52:54;23.40;54.10
47090;DHT22;32840;52.516;13.294;2022-07-29T21:55:39;23.40;54.00
47090;DHT22;32840;52.516;13.294;2022-07-29T21:58:24;23.40;54.00
47090;DHT22;32840;52.516;13.294;2022-07-29T22:01:11;23.40;54.10
47090;DHT22;32840;52.516;13.294;2022-07-29T22:03:55;23.40;54.00
47090;DHT22;32840;52.516;13.294;2022-07-29T22:06:40;23.40;54.00
47090;DHT22;32840;52.516;13.294;2022-07-29T22:09:25;23.40;53.90
47090;DHT22;32840;52.516;13.294;2022-07-29T22:12:10;23.30;53.80
47090;DHT22;32840;52.516;13.294;2022-07-29T22:14:55;23.30;53.90
47090;DHT22;32840;52.516;13.294;2022-07-29T22:17:40;23.20;53.80
47090;DHT22;32840;52.516;13.294;2022-07-29T22:20:25;23.20;53.90
47090;DHT22;32840;52.516;13.294;2022-07-29T22:23:10;23.20;53.90
47090;DHT22;32840;52.516;13.294;2022-07-29T22:25:55;23.20;53.90
47090;DHT22;32840;52.516;13.294;2022-07-29T22:28:40;23.20;54.00
47090;DHT22;32840;52.516;13.294;2022-07-29T22:31:25;23.20;54.00
47090;DHT22;32840;52.516;13.294;2022-07-29T22:34:10;23.20;53.90
47090;DHT22;32840;52.516;13.294;2022-07-29T22:36:57;23.20;54.10
47090;DHT22;32840;52.516;13.294;2022-07-29T22:39:43;23.10;54.00
47090;DHT22;32840;52.516;13.294;2022-07-29T22:42:28;23.10;54.20
47090;DHT22;32840;52.516;13.294;2022-07-29T22:45:13;23.10;54.20
47090;DHT22;32840;52.516;13.294;2022-07-29T22:47:57;23.00;54.20
47090;DHT22;32840;52.516;13.294;2022-07-29T22:50:43;23.00;54.30
47090;DHT22;32840;52.516;13.294;2022-07-29T22:53:27;22.90;54.30
47090;DHT22;32840;52.516;13.294;2022-07-29T22:56:12;22.90;54.50
47090;DHT22;32840;52.516;13.294;2022-07-29T22:58:58;22.90;54.50
47090;DHT22;32840;52.516;13.294;2022-07-29T23:01:42;22.90;54.70
47090;DHT22;32840;52.516;13.294;2022-07-29T23:04:27;22.90;54.80
47090;DHT22;32840;52.516;13.294;2022-07-29T23:07:12;22.80;54.80
47090;DHT22;32840;52.516;13.294;2022-07-29T23:09:57;22.80;55.00
47090;DHT22;32840;52.516;13.294;2022-07-29T23:12:42;22.80;55.10
47090;DHT22;32840;52.516;13.294;2022-07-29T23:15:27;22.80;55.10
47090;DHT22;32840;52.516;13.294;2022-07-29T23:18:12;22.70;55.20
47090;DHT22;32840;52.516;13.294;2022-07-29T23:20:57;22.70;55.30
47090;DHT22;32840;52.516;13.294;2022-07-29T23:23:41;22.70;55.50
47090;DHT22;32840;52.516;13.294;2022-07-29T23:26:29;22.70;55.40
47090;DHT22;32840;52.516;13.294;2022-07-29T23:29:15;22.70;55.50
47090;DHT22;32840;52.516;13.294;2022-07-29T23:32:00;22.60;55.60
47090;DHT22;32840;52.516;13.294;2022-07-29T23:34:45;22.60;55.70
47090;DHT22;32840;52.516;13.294;2022-07-29T23:37:30;22.60;55.80
47090;DHT22;32840;52.516;13.294;2022-07-29T23:40:15;22.60;55.90
47090;DHT22;32840;52.516;13.294;2022-07-29T23:43:01;22.60;56.00
47090;DHT22;32840;52.516;13.294;2022-07-29T23:45:46;22.50;56.10
47090;DHT22;32840;52.516;13.294;2022-07-29T23:48:31;22.50;56.20
47090;DHT22;32840;52.516;13.294;2022-07-29T23:51:16;22.50;56.20
47090;DHT22;32840;52.516;13.294;2022-07-29T23:54:01;22.50;56.30
47090;DHT22;32840;52.516;13.294;2022-07-29T23:56:46;22.50;56.40
47090;DHT22;32840;52.516;13.294;2022-07-29T23:59:31;22.40;56.50
